Time;durP1;ratioP1;P1;durP2;ratioP2;P2;SDS_P1;SDS_P2;PMS_P1;PMS_P2;Temp;Humidity;BMP_temperature;BMP_pressure;BME280_temperature;BME280_humidity;BME280_pressure;Samples;Min_cycle;Max_cycle;Signal;HPM_P1;HPM_P2
2021/01/24 00:33:50;368058.00;1.23;634.90;0.00;0.00;0.62;;;;;10.20;1.00;;;;;;2284900;60;1387;-88
2021/01/24 00:36:19;405916.00;1.35;699.98;0.00;0.00;0.62;;;;;10.60;1.00;;;;;;2285063;60;1634;-87
2021/01/24 00:38:46;334145.00;1.11;576.61;0.00;0.00;0.62;;;;;10.90;1.00;;;;;;2285172;60;1029;-88
2021/01/24 00:41:12;236712.00;0.79;409.10;0.00;0.00;0.62;;;;;10.80;1.00;;;;;;2277977;61;972;-88
2021/01/24 00:43:39;415077.00;1.38;715.73;0.00;0.00;0.62;;;;;9.90;1.00;;;;;;2285076;60;1369;-87
2021/01/24 00:46:05;420203.00;1.40;724.54;0.00;0.00;0.62;;;;;9.90;1.00;;;;;;2285175;60;1037;-87
2021/01/24 00:48:34;338784.00;1.13;584.58;0.00;0.00;0.62;;;;;9.70;1.00;;;;;;2284594;60;1998;-89
2021/01/24 00:51:01;403015.00;1.34;694.99;0.00;0.00;0.62;;;;;9.60;1.00;;;;;;2285112;60;980;-88
2021/01/24 00:53:28;306367.00;1.02;528.86;0.00;0.00;0.62;;;;;9.70;1.00;;;;;;2277931;60;1408;-89
2021/01/24 00:55:55;224344.00;0.75;387.82;0.00;0.00;0.62;;;;;9.60;1.00;;;;;;2285198;60;1015;-88
2021/01/24 00:58:21;219390.00;0.73;379.29;0.00;0.00;0.62;;;;;9.00;1.00;;;;;;2285201;60;940;-88
2021/01/24 01:00:48;335849.00;1.12;579.54;0.00;0.00;0.62;;;;;8.60;1.00;;;;;;2272452;61;939;-89
2021/01/24 01:03:14;274930.00;0.92;474.82;0.00;0.00;0.62;;;;;8.40;1.00;;;;;;2265642;61;1485;-88
2021/01/24 01:05:41;230705.00;0.77;398.76;0.00;0.00;0.62;;;;;8.50;1.00;;;;;;2260266;61;988;-89
2021/01/24 01:08:08;467063.00;1.56;805.14;0.00;0.00;0.62;;;;;8.90;1.00;;;;;;2260165;61;1928;-89
2021/01/24 01:10:35;343581.00;1.15;592.83;0.00;0.00;0.62;;;;;8.90;1.00;;;;;;2263358;61;951;-87
2021/01/24 01:13:02;395158.00;1.32;681.48;0.00;0.00;0.62;;;;;8.60;1.00;;;;;;2264271;61;1325;-90
2021/01/24 01:15:28;351097.00;1.17;605.75;0.00;0.00;0.62;;;;;8.20;1.00;;;;;;2264408;61;1011;-89
2021/01/24 01:17:55;397085.00;1.32;684.79;0.00;0.00;0.62;;;;;8.30;1.00;;;;;;2265631;61;1062;-88
2021/01/24 01:20:21;280748.00;0.94;484.82;0.00;0.00;0.62;;;;;8.20;1.00;;;;;;2264220;61;1069;-89
2021/01/24 01:22:48;391839.00;1.31;675.78;0.00;0.00;0.62;;;;;8.70;1.00;;;;;;2260892;61;1223;-88
2021/01/24 01:25:15;336051.00;1.12;579.89;0.00;0.00;0.62;;;;;9.20;1.00;;;;;;2256140;61;1002;-89
2021/01/24 01:27:43;359279.00;1.20;619.81;0.00;0.00;0.62;;;;;9.70;1.00;;;;;;2256136;61;1023;-87
2021/01/24 01:30:11;346274.00;1.15;597.46;0.00;0.00;0.62;;;;;9.80;1.00;;;;;;2260124;61;1990;-89
2021/01/24 01:32:37;186078.00;0.62;321.96;0.00;0.00;0.62;;;;;9.70;1.00;;;;;;2256915;61;1456;-88
2021/01/24 01:35:06;285771.00;0.95;493.46;0.00;0.00;0.62;;;;;9.40;1.00;;;;;;2260332;61;1029;-86
2021/01/24 01:37:32;290314.00;0.97;501.27;0.00;0.00;0.62;;;;;9.40;1.00;;;;;;2258548;61;989;-87
2021/01/24 01:39:59;209413.00;0.70;362.13;0.00;0.00;0.62;;;;;9.00;1.00;;;;;;2272359;61;1013;-88
2021/01/24 01:42:27;106507.00;0.36;184.80;0.00;0.00;0.62;;;;;8.70;1.00;;;;;;2265570;61;1069;-87
2021/01/24 01:44:53;347415.00;1.16;599.42;0.00;0.00;0.62;;;;;8.30;1.00;;;;;;2276279;61;1346;-88
2021/01/24 01:47:23;254278.00;0.85;439.31;0.00;0.00;0.62;;;;;8.00;1.00;;;;;;2268194;61;1001;-86
2021/01/24 01:49:50;165410.00;0.55;286.36;0.00;0.00;0.62;;;;;7.70;1.00;;;;;;2265218;61;2001;-88
2021/01/24 01:52:18;134123.00;0.45;232.44;0.00;0.00;0.62;;;;;7.60;1.00;;;;;;2272338;61;853;-90
2021/01/24 01:54:47;103504.00;0.35;179.62;0.00;0.00;0.62;;;;;7.90;1.00;;;;;;2272012;61;1494;-87
2021/01/24 02:02:28;324059.00;1.08;559.27;0.00;0.00;0.62;;;;;8.40;1.00;;;;;;2290769;60;1294;-88
2021/01/24 02:05:04;13377.00;0.04;23.80;0.00;0.00;0.62;;;;;8.20;1.00;;;;;;2288937;60;1335;-86
2021/01/24 02:07:39;36281.00;0.12;63.45;0.00;0.00;0.62;;;;;7.80;1.00;;;;;;2288955;60;987;-87
2021/01/24 02:10:13;20055.00;0.07;35.37;0.00;0.00;0.62;;;;;7.50;1.00;;;;;;2289014;60;1988;-87
2021/01/24 02:12:56;0.00;0.00;0.62;0.00;0.00;0.62;;;;;7.60;1.00;;;;;;2276003;61;1388;-87
2021/01/24 02:15:25;26358.00;0.09;46.28;0.00;0.00;0.62;;;;;7.20;1.00;;;;;;2276221;61;1058;-86
2021/01/24 02:17:59;4065.00;0.01;7.67;0.00;0.00;0.62;;;;;7.20;1.00;;;;;;2271832;61;1611;-85
2021/01/24 02:20:34;52335.00;0.17;91.22;0.00;0.00;0.62;;;;;6.90;1.00;;;;;;2262006;61;1021;-86
2021/01/24 02:23:02;0.00;0.00;0.62;0.00;0.00;0.62;;;;;6.40;1.00;;;;;;2263931;61;1396;-86
2021/01/24 02:25:41;114733.00;0.38;199.00;0.00;0.00;0.62;;;;;6.10;1.00;;;;;;2263892;61;1074;-86
2021/01/24 02:28:17;12159.00;0.04;21.69;0.00;0.00;0.62;;;;;5.90;1.00;;;;;;2263784;61;2028;-86
2021/01/24 02:30:46;11860.00;0.04;21.17;0.00;0.00;0.62;;;;;5.50;1.00;;;;;;2269281;61;973;-84
2021/01/24 02:33:17;6051.00;0.02;11.11;0.00;0.00;0.62;;;;;5.10;1.00;;;;;;2275079;61;1420;-85
2021/01/24 02:35:48;7086.00;0.02;12.90;0.00;0.00;0.62;;;;;5.20;1.00;;;;;;2277280;61;1085;-85
2021/01/24 02:38:19;42425.00;0.14;74.08;0.00;0.00;0.62;;;;;5.40;1.00;;;;;;2273009;61;1164;-85
2021/01/24 02:40:47;0.00;0.00;0.62;0.00;0.00;0.62;;;;;5.60;1.00;;;;;;2278430;61;1151;-87
2021/01/24 02:43:16;29745.00;0.10;52.14;0.00;0.00;0.62;;;;;5.90;1.00;;;;;;2275853;61;1435;-88
2021/01/24 02:45:46;0.00;0.00;0.62;0.00;0.00;0.62;;;;;6.60;1.00;;;;;;2276143;61;1037;-84
2021/01/24 02:48:14;6958.00;0.02;12.68;0.00;0.00;0.62;;;;;7.10;1.00;;;;;;2269108;61;2005;-85
2021/01/24 02:50:42;0.00;0.00;0.62;0.00;0.00;0.62;;;;;7.10;1.00;;;;;;2279563;60;982;-86
2021/01/24 02:53:14;260790.00;0.87;450.51;19622.00;0.07;34.62;;;;;7.30;1.00;;;;;;2281646;60;1297;-87
2021/01/24 02:55:41;18881.00;0.06;33.33;0.00;0.00;0.62;;;;;7.10;1.00;;;;;;2288883;60;980;-86
2021/01/24 02:58:08;0.00;0.00;0.62;0.00;0.00;0.62;;;;;7.00;1.00;;;;;;2288590;60;1219;-87
2021/01/24 03:00:34;0.00;0.00;0.62;0.00;0.00;0.62;;;;;7.20;1.00;;;;;;2288731;60;1090;-87
2021/01/24 03:03:02;15984.00;0.05;28.31;0.00;0.00;0.62;;;;;7.20;1.00;;;;;;2288851;60;1294;-86
2021/01/24 03:05:32;0.00;0.00;0.62;0.00;0.00;0.62;;;;;7.50;1.00;;;;;;2278196;60;943;-86
2021/01/24 03:07:58;0.00;0.00;0.62;0.00;0.00;0.62;;;;;7.30;1.00;;;;;;2281702;60;972;-86
2021/01/24 03:10:25;0.00;0.00;0.62;0.00;0.00;0.62;;;;;7.10;1.00;;;;;;2281557;60;995;-85
2021/01/24 03:13:03;0.00;0.00;0.62;0.00;0.00;0.62;;;;;7.30;1.00;;;;;;2278312;60;1352;-87
2021/01/24 03:15:31;6916.00;0.02;12.61;0.00;0.00;0.62;;;;;7.50;1.00;;;;;;2284010;61;1131;-86
2021/01/24 03:18:00;0.00;0.00;0.62;0.00;0.00;0.62;;;;;6.90;1.00;;;;;;2279687;61;1133;-86
2021/01/24 03:20:34;0.00;0.00;0.62;0.00;0.00;0.62;;;;;6.40;1.00;;;;;;2269236;61;1156;-86
2021/01/24 03:23:03;0.00;0.00;0.62;0.00;0.00;0.62;;;;;6.00;1.00;;;;;;2267683;61;1378;-85
2021/01/24 03:25:31;9372.00;0.03;16.86;0.00;0.00;0.62;;;;;5.90;1.00;;;;;;2267468;61;1092;-86
2021/01/24 03:27:58;2008.00;0.01;4.10;0.00;0.00;0.62;;;;;5.30;1.00;;;;;;2257622;61;1065;-86
2021/01/24 03:30:25;3936.00;0.01;7.44;0.00;0.00;0.62;;;;;5.60;1.00;;;;;;2259022;61;1940;-85
2021/01/24 03:32:52;1856.00;0.01;3.84;0.00;0.00;0.62;;;;;5.80;1.00;;;;;;2259371;61;1318;-87
2021/01/24 03:35:19;0.00;0.00;0.62;0.00;0.00;0.62;;;;;6.00;1.00;;;;;;2261552;61;1029;-86
2021/01/24 03:37:46;22577.00;0.08;39.73;0.00;0.00;0.62;;;;;6.30;1.00;;;;;;2267756;61;1113;-86
2021/01/24 03:40:13;9105.00;0.03;16.40;0.00;0.00;0.62;;;;;6.70;1.00;;;;;;2269631;61;974;-86
2021/01/24 03:42:40;0.00;0.00;0.62;0.00;0.00;0.62;;;;;7.00;1.00;;;;;;2280017;61;1431;-87
2021/01/24 03:45:08;43470.00;0.14;75.89;0.00;0.00;0.62;;;;;7.60;1.00;;;;;;2269844;61;998;-86
2021/01/24 03:47:37;41223.00;0.14;72.00;0.00;0.00;0.62;;;;;7.20;1.00;;;;;;2268743;61;1031;-85
2021/01/24 03:50:05;0.00;0.00;0.62;0.00;0.00;0.62;;;;;6.80;1.00;;;;;;2264982;61;2027;-85
2021/01/24 03:52:31;17681.00;0.06;31.25;0.00;0.00;0.62;;;;;6.50;1.00;;;;;;2266366;61;1101;-85
2021/01/24 03:54:59;123976.00;0.41;214.94;0.00;0.00;0.62;;;;;6.10;1.00;;;;;;2257107;61;1480;-86
2021/01/24 03:57:26;189327.00;0.63;327.55;29037.00;0.10;50.92;;;;;6.10;1.00;;;;;;2260040;61;1176;-85
2021/01/24 03:59:54;108364.00;0.36;188.01;0.00;0.00;0.62;;;;;6.50;1.00;;;;;;2267043;61;1176;-85
2021/01/24 04:02:29;219217.00;0.73;379.00;0.00;0.00;0.62;;;;;6.80;1.00;;;;;;2260913;61;1204;-85
2021/01/24 04:04:56;229764.00;0.77;397.14;0.00;0.00;0.62;;;;;7.00;1.00;;;;;;2270788;61;1486;-85
2021/01/24 05:02:55;921412.00;3.07;1593.76;8543.00;0.03;15.42;;;;;5.90;1.00;;;;;;2477965;39;2153;31
2021/01/24 06:00:00;498391.00;1.66;859.05;0.00;0.00;0.62;;;;;5.00;1.00;;;;;;2286238;60;1400;-84
2021/01/24 06:04:55;403394.00;1.34;695.64;0.00;0.00;0.62;;;;;5.10;1.00;;;;;;2500316;39;2078;31
2021/01/24 06:07:23;417031.00;1.39;719.09;0.00;0.00;0.62;;;;;5.30;1.00;;;;;;2281500;61;1421;-86
2021/01/24 06:09:50;103321.00;0.34;179.30;0.00;0.00;0.62;;;;;4.70;1.00;;;;;;2269574;61;1943;-85
2021/01/24 06:17:29;560313.00;1.87;965.74;0.00;0.00;0.62;;;;;5.40;1.00;;;;;;2286014;61;1170;-84
2021/01/24 06:20:00;11708.00;0.04;20.91;0.00;0.00;0.62;;;;;5.10;1.00;;;;;;2283743;61;1053;-84
2021/01/24 06:22:44;10627.00;0.04;19.04;0.00;0.00;0.62;;;;;5.90;1.00;;;;;;2276717;61;1131;-85
2021/01/24 06:25:15;116873.00;0.39;202.69;38090.00;0.13;66.58;;;;;6.00;1.00;;;;;;2280134;60;1045;-83
2021/01/24 06:27:52;2580.00;0.01;5.09;0.00;0.00;0.62;;;;;6.20;1.00;;;;;;2280300;61;1076;-83
2021/01/24 06:30:21;252794.00;0.84;436.76;81181.00;0.27;141.08;;;;;5.50;1.00;;;;;;2280167;61;1995;-85
2021/01/24 06:32:49;60043.00;0.20;104.55;0.00;0.00;0.62;;;;;4.80;1.00;;;;;;2280130;61;1458;-87
2021/01/24 06:40:21;78571.00;0.26;136.57;0.00;0.00;0.62;;;;;4.90;1.00;;;;;;2285261;61;1406;-84
2021/01/24 06:42:49;0.00;0.00;0.62;0.00;0.00;0.62;;;;;5.20;1.00;;;;;;2283783;61;1414;-85
2021/01/24 06:45:37;21192.00;0.07;37.33;0.00;0.00;0.62;;;;;5.40;1.00;;;;;;2283782;61;1085;-84
2021/01/24 06:48:06;19033.00;0.06;33.60;0.00;0.00;0.62;;;;;5.50;1.00;;;;;;2273282;61;1097;-84
2021/01/24 06:50:42;0.00;0.00;0.62;0.00;0.00;0.62;;;;;5.30;1.00;;;;;;2283520;61;1927;-84
2021/01/24 06:53:10;138616.00;0.46;240.18;0.00;0.00;0.62;;;;;5.50;1.00;;;;;;2283583;61;1450;-84
2021/01/24 06:55:37;54454.00;0.18;94.89;0.00;0.00;0.62;;;;;5.70;1.00;;;;;;2283605;61;1186;-84
2021/01/24 06:58:32;0.00;0.00;0.62;0.00;0.00;0.62;;;;;5.60;1.00;;;;;;2272751;61;1092;-84
2021/01/24 07:01:21;59279.00;0.20;103.23;0.00;0.00;0.62;;;;;5.90;1.00;;;;;;2275446;61;1201;-83
2021/01/24 07:03:49;384059.00;1.28;662.40;79157.00;0.26;137.58;;;;;6.00;1.00;;;;;;2272402;61;1427;-83
2021/01/24 07:06:32;42233.00;0.14;73.75;0.00;0.00;0.62;;;;;6.10;1.00;;;;;;2282828;61;1080;-83
2021/01/24 07:08:59;25401.00;0.08;44.62;0.00;0.00;0.62;;;;;5.80;1.00;;;;;;2272120;61;2101;-83
2021/01/24 07:11:52;5690.00;0.02;10.48;0.00;0.00;0.62;;;;;5.80;1.00;;;;;;2269347;61;1144;-83
2021/01/24 07:14:48;233430.00;0.78;403.45;95460.00;0.32;165.73;;;;;5.70;1.00;;;;;;2259530;61;1431;-84
2021/01/24 07:17:18;381923.00;1.27;658.73;25936.00;0.09;45.55;;;;;5.60;1.00;;;;;;2257979;61;1101;-84
2021/01/24 07:19:48;270678.00;0.90;467.51;0.00;0.00;0.62;;;;;5.60;1.00;;;;;;2257591;61;1114;-84
2021/01/24 07:22:15;273311.00;0.91;472.04;0.00;0.00;0.62;;;;;5.90;1.00;;;;;;2254188;61;1190;-84
2021/01/24 07:24:44;497174.00;1.66;856.96;0.00;0.00;0.62;;;;;5.50;1.00;;;;;;2256551;61;1380;-84
2021/01/24 07:27:12;254848.00;0.85;440.29;0.00;0.00;0.62;;;;;5.80;1.00;;;;;;2257344;61;1039;-84
2021/01/24 07:29:39;394374.00;1.31;680.13;0.00;0.00;0.62;;;;;5.40;1.00;;;;;;2249284;61;1939;-84
2021/01/24 07:32:07;505232.00;1.68;870.83;0.00;0.00;0.62;;;;;5.30;1.00;;;;;;2249478;61;1174;-85
2021/01/24 07:34:34;342027.00;1.14;590.16;0.00;0.00;0.62;;;;;5.00;1.00;;;;;;2250440;61;1363;-84
2021/01/24 07:37:03;341265.00;1.14;588.85;0.00;0.00;0.62;;;;;4.70;1.00;;;;;;2250769;61;1201;-84
2021/01/24 07:39:32;480329.00;1.60;827.96;0.00;0.00;0.62;;;;;5.00;1.00;;;;;;2257511;61;1093;-84
2021/01/24 07:41:59;169268.00;0.56;293.01;0.00;0.00;0.62;;;;;5.60;1.00;;;;;;2257638;61;1130;-84
2021/01/24 07:44:26;195371.00;0.65;337.96;0.00;0.00;0.62;;;;;6.40;1.00;;;;;;2257042;61;1369;-83
2021/01/24 07:46:53;318832.00;1.06;550.29;0.00;0.00;0.62;;;;;6.50;1.00;;;;;;2259674;61;1209;-84
2021/01/24 07:51:48;692049.00;2.31;1193.45;0.00;0.00;0.62;;;;;5.80;1.00;;;;;;2280748;61;1421;-83
2021/01/24 07:54:16;314165.00;1.05;542.27;0.00;0.00;0.62;;;;;5.20;1.00;;;;;;2277965;61;1313;-83
2021/01/24 07:56:43;266451.00;0.89;460.24;0.00;0.00;0.62;;;;;5.70;1.00;;;;;;2270891;61;1263;-82
2021/01/24 07:59:11;289120.00;0.96;499.22;0.00;0.00;0.62;;;;;6.30;1.00;;;;;;2265562;61;1009;-83
2021/01/24 08:01:43;295602.00;0.99;510.36;0.00;0.00;0.62;;;;;6.60;1.00;;;;;;2261451;61;1180;-84
2021/01/24 08:04:09;188339.00;0.63;325.85;0.00;0.00;0.62;;;;;6.40;1.00;;;;;;2261621;61;1333;-83
2021/01/24 08:06:37;277578.00;0.93;479.37;0.00;0.00;0.62;;;;;6.80;1.00;;;;;;2252627;61;1193;-83
2021/01/24 08:09:06;206055.00;0.69;356.35;0.00;0.00;0.62;;;;;6.70;1.00;;;;;;2253272;61;2023;-84
2021/01/24 08:11:34;186919.00;0.62;323.40;0.00;0.00;0.62;;;;;6.00;1.00;;;;;;2244978;62;1129;-83
2021/01/24 08:14:04;316840.00;1.06;546.87;0.00;0.00;0.62;;;;;5.90;1.00;;;;;;2245552;62;1424;-82
2021/01/24 08:16:37;66601.00;0.22;115.89;0.00;0.00;0.62;;;;;6.10;1.00;;;;;;2247195;61;1170;-84
2021/01/24 08:21:48;0.00;0.00;0.62;0.00;0.00;0.62;;;;;7.20;1.00;;;;;;2249244;61;1060;-85
2021/01/24 08:26:48;405949.00;1.35;700.03;0.00;0.00;0.62;;;;;7.00;1.00;;;;;;2281497;61;1420;-84
2021/01/24 08:29:15;23175.00;0.08;40.77;0.00;0.00;0.62;;;;;6.80;1.00;;;;;;2276022;61;2006;-85
2021/01/24 08:31:43;11767.00;0.04;21.01;0.00;0.00;0.62;;;;;6.80;1.00;;;;;;2267968;61;1295;-85
2021/01/24 08:59:27;726619.00;2.42;1253.43;0.00;0.00;0.62;;;;;5.10;1.00;;;;;;2278515;61;1429;-85
2021/01/24 09:11:51;815751.00;2.72;1408.61;0.00;0.00;0.62;;;;;6.00;1.00;;;;;;2285552;61;1210;-82
2021/01/24 09:36:57;473652.00;1.58;816.47;0.00;0.00;0.62;;;;;5.70;1.00;;;;;;2285498;61;1385;-84
2021/01/24 09:39:29;221421.00;0.74;382.79;0.00;0.00;0.62;;;;;5.90;1.00;;;;;;2275732;61;1116;-84
2021/01/24 09:41:56;226094.00;0.75;390.83;0.00;0.00;0.62;;;;;5.90;1.00;;;;;;2267240;61;1101;-84
2021/01/24 10:24:08;772948.00;2.58;1333.98;0.00;0.00;0.62;;;;;6.80;1.00;;;;;;2048603;39;2336;31
2021/01/24 10:29:04;442822.00;1.48;763.44;0.00;0.00;0.62;;;;;6.90;1.00;;;;;;2281829;61;1420;-84
2021/01/24 10:33:58;278770.00;0.93;481.42;0.00;0.00;0.62;;;;;6.80;1.00;;;;;;2276774;61;1427;-82
2021/01/24 10:36:24;30532.00;0.10;53.50;0.00;0.00;0.62;;;;;7.40;1.00;;;;;;2266033;61;1919;-86
2021/01/24 10:53:53;857859.00;2.86;1482.22;0.00;0.00;0.62;;;;;7.10;1.00;;;;;;2281544;61;1434;-86
2021/01/24 10:56:19;225889.00;0.75;390.48;61145.00;0.20;106.46;;;;;6.70;1.00;;;;;;2266773;61;1935;-85
2021/01/24 10:58:46;225967.00;0.75;390.61;18164.00;0.06;32.09;;;;;6.70;1.00;;;;;;2258909;61;1058;-86
2021/01/24 11:16:07;167241.00;0.56;289.51;0.00;0.00;0.62;;;;;7.10;1.00;;;;;;2277158;61;1903;-85
2021/01/24 11:21:02;508298.00;1.69;876.11;0.00;0.00;0.62;;;;;7.40;1.00;;;;;;2277469;61;1413;-90
2021/01/24 11:25:56;30981.00;0.10;54.28;0.00;0.00;0.62;;;;;7.40;1.00;;;;;;2277598;61;1406;-84
2021/01/24 11:28:23;26962.00;0.09;47.32;0.00;0.00;0.62;;;;;7.10;1.00;;;;;;2267119;61;976;-80
2021/01/24 11:30:50;19526.00;0.07;34.45;0.00;0.00;0.62;;;;;7.20;1.00;;;;;;2272531;61;1030;-82
2021/01/24 11:33:17;22409.00;0.07;39.44;0.00;0.00;0.62;;;;;7.00;1.00;;;;;;2272684;61;1601;-82
2021/01/24 11:35:44;54071.00;0.18;94.23;0.00;0.00;0.62;;;;;7.00;1.00;;;;;;2269260;61;1915;-83
2021/01/24 11:38:10;273262.00;0.91;471.95;0.00;0.00;0.62;;;;;6.60;1.00;;;;;;2273222;61;933;-83
2021/01/24 11:40:37;18390.00;0.06;32.48;0.00;0.00;0.62;;;;;6.80;1.00;;;;;;2264714;61;1053;-80
2021/01/24 11:43:03;11113.00;0.04;19.88;0.00;0.00;0.62;;;;;6.60;1.00;;;;;;2264744;61;1305;-82
2021/01/24 11:45:30;8558.00;0.03;15.45;0.00;0.00;0.62;;;;;6.70;1.00;;;;;;2256544;61;1585;-83
2021/01/24 11:47:56;0.00;0.00;0.62;0.00;0.00;0.62;;;;;6.90;1.00;;;;;;2256680;61;1231;-81
2021/01/24 11:50:24;0.00;0.00;0.62;0.00;0.00;0.62;;;;;7.20;1.00;;;;;;2256686;61;1133;-80
2021/01/24 11:52:51;7361.00;0.02;13.38;0.00;0.00;0.62;;;;;7.40;1.00;;;;;;2256606;61;1433;-81
2021/01/24 11:55:18;129293.00;0.43;224.11;0.00;0.00;0.62;;;;;6.90;1.00;;;;;;2250294;61;1057;-83
2021/01/24 11:57:44;130885.00;0.44;226.86;0.00;0.00;0.62;;;;;7.00;1.00;;;;;;2257067;61;2007;-81
2021/01/24 12:00:12;0.00;0.00;0.62;0.00;0.00;0.62;;;;;7.40;1.00;;;;;;2260873;61;1232;-82
2021/01/24 12:02:39;0.00;0.00;0.62;0.00;0.00;0.62;;;;;7.20;1.00;;;;;;2260861;61;1473;-80
2021/01/24 12:05:06;98155.00;0.33;170.39;0.00;0.00;0.62;;;;;7.20;1.00;;;;;;2256764;61;1055;-82
2021/01/24 12:07:34;56445.00;0.19;98.33;0.00;0.00;0.62;;;;;7.30;1.00;;;;;;2256763;61;1018;-77
2021/01/24 12:10:00;31834.00;0.11;55.76;0.00;0.00;0.62;;;;;7.90;1.00;;;;;;2256820;61;1083;-79
2021/01/24 12:12:27;0.00;0.00;0.62;0.00;0.00;0.62;;;;;7.30;1.00;;;;;;2256777;61;1509;-79
2021/01/24 12:14:53;0.00;0.00;0.62;0.00;0.00;0.62;;;;;7.00;1.00;;;;;;2251281;61;1048;-79
2021/01/24 12:17:24;0.00;0.00;0.62;0.00;0.00;0.62;;;;;7.00;1.00;;;;;;2264566;61;1916;-82
2021/01/24 12:19:50;11182.00;0.04;20.00;0.00;0.00;0.62;;;;;7.10;1.00;;;;;;2254716;61;1029;-84
2021/01/24 12:22:17;0.00;0.00;0.62;0.00;0.00;0.62;;;;;7.40;1.00;;;;;;2262493;61;1387;-81
2021/01/24 12:24:44;0.00;0.00;0.62;0.00;0.00;0.62;;;;;7.50;1.00;;;;;;2262941;61;1025;-83
2021/01/24 12:27:11;12049.00;0.04;21.50;0.00;0.00;0.62;;;;;7.30;1.00;;;;;;2266002;61;969;-82
2021/01/24 12:29:37;24510.00;0.08;43.08;0.00;0.00;0.62;;;;;7.70;1.00;;;;;;2269419;61;1124;-81
2021/01/24 12:32:04;68368.00;0.23;118.94;0.00;0.00;0.62;;;;;7.80;1.00;;;;;;2269210;61;1543;-82
2021/01/24 12:34:30;0.00;0.00;0.62;0.00;0.00;0.62;;;;;7.90;1.00;;;;;;2273029;61;1059;-78
2021/01/24 12:36:57;98745.00;0.33;171.41;30761.00;0.10;53.90;;;;;7.70;1.00;;;;;;2265996;61;1914;-82
2021/01/24 12:39:23;765079.00;2.55;1320.29;145004.00;0.48;251.20;;;;;7.70;1.00;;;;;;2272914;61;1000;-80
2021/01/24 12:41:51;0.00;0.00;0.62;0.00;0.00;0.62;;;;;8.00;1.00;;;;;;2266003;61;1502;-81
2021/01/24 13:51:20;566091.00;1.89;975.70;45702.00;0.15;79.75;;;;;7.70;1.00;;;;;;2509823;40;3522;31
2021/01/24 18:01:29;0.00;0.00;0.62;0.00;0.00;0.62;;;;;10.20;1.00;;;;;;2283002;61;1246;-84
2021/01/24 18:03:56;0.00;0.00;0.62;0.00;0.00;0.62;;;;;10.60;1.00;;;;;;2269956;61;1140;-85
2021/01/24 18:08:50;25387.00;0.08;44.60;0.00;0.00;0.62;;;;;10.80;1.00;;;;;;2282902;60;1415;-84
2021/01/24 18:11:17;46271.00;0.15;80.74;0.00;0.00;0.62;;;;;10.90;1.00;;;;;;2280601;61;1266;-85
2021/01/24 18:13:43;143644.00;0.48;248.85;0.00;0.00;0.62;;;;;10.60;1.00;;;;;;2281138;60;1378;-84
2021/01/24 18:16:10;20745.00;0.07;36.56;0.00;0.00;0.62;;;;;10.20;1.00;;;;;;2277304;61;1923;-85
2021/01/24 18:18:40;51230.00;0.17;89.31;0.00;0.00;0.62;;;;;10.00;1.00;;;;;;2277265;61;1030;-85
2021/01/24 18:21:07;159473.00;0.53;276.13;28704.00;0.10;50.34;;;;;10.10;1.00;;;;;;2281115;61;981;-86
2021/01/24 18:23:34;68812.00;0.23;119.71;0.00;0.00;0.62;;;;;10.20;1.00;;;;;;2270586;60;1492;-85
2021/01/24 18:26:01;37363.00;0.12;65.33;0.00;0.00;0.62;;;;;10.00;1.00;;;;;;2281113;60;1093;-85
2021/01/24 18:28:28;61311.00;0.20;106.74;0.00;0.00;0.62;;;;;9.90;1.00;;;;;;2281051;61;1028;-84
2021/01/24 18:30:54;28025.00;0.09;49.16;0.00;0.00;0.62;;;;;9.40;1.00;;;;;;2281031;61;945;-83
2021/01/24 18:33:21;3553.00;0.01;6.78;0.00;0.00;0.62;;;;;8.90;1.00;;;;;;2272308;61;1326;-85
2021/01/24 18:35:49;0.00;0.00;0.62;0.00;0.00;0.62;;;;;8.90;1.00;;;;;;2272503;61;1099;-85
2021/01/24 18:38:15;0.00;0.00;0.62;0.00;0.00;0.62;;;;;9.00;1.00;;;;;;2264739;61;2011;-85
2021/01/24 18:40:42;9613.00;0.03;17.28;0.00;0.00;0.62;;;;;9.40;1.00;;;;;;2265091;61;1623;-83
2021/01/24 18:43:09;0.00;0.00;0.62;0.00;0.00;0.62;;;;;9.60;1.00;;;;;;2265351;61;1414;-83
2021/01/24 18:45:38;28151.00;0.09;49.38;0.00;0.00;0.62;;;;;9.30;1.00;;;;;;2265313;61;1132;-84
2021/01/24 18:48:06;35972.00;0.12;62.92;0.00;0.00;0.62;;;;;9.00;1.00;;;;;;2262485;61;1132;-85
2021/01/24 18:50:32;7573.00;0.03;13.74;0.00;0.00;0.62;;;;;9.20;1.00;;;;;;2261645;61;989;-82
2021/01/24 18:53:00;41806.00;0.14;73.01;0.00;0.00;0.62;;;;;9.00;1.00;;;;;;2258080;61;1384;-84
2021/01/24 18:55:26;74375.00;0.25;129.32;0.00;0.00;0.62;;;;;8.70;1.00;;;;;;2266111;61;1080;-84
2021/01/24 18:57:53;0.00;0.00;0.62;0.00;0.00;0.62;;;;;8.90;1.00;;;;;;2266277;61;1908;-85
2021/01/24 19:00:20;0.00;0.00;0.62;0.00;0.00;0.62;;;;;9.00;1.00;;;;;;2260549;61;927;-84
2021/01/24 19:02:48;210117.00;0.70;363.34;45611.00;0.15;79.60;;;;;9.10;1.00;;;;;;2252940;61;1322;-85
2021/01/24 19:05:15;0.00;0.00;0.62;0.00;0.00;0.62;;;;;9.40;1.00;;;;;;2253090;61;1001;-84
2021/01/24 19:07:43;49519.00;0.17;86.35;0.00;0.00;0.62;;;;;9.20;1.00;;;;;;2254006;61;1135;-84
2021/01/24 19:10:11;80256.00;0.27;139.48;11075.00;0.04;19.81;;;;;8.60;1.00;;;;;;2261010;61;1073;-84
2021/01/24 19:12:37;30700.00;0.10;53.79;0.00;0.00;0.62;;;;;8.30;1.00;;;;;;2257496;61;1368;-83
2021/01/24 19:15:06;21580.00;0.07;38.01;0.00;0.00;0.62;;;;;8.40;1.00;;;;;;2260809;61;1066;-83
2021/01/24 19:17:33;454673.00;1.52;783.82;83678.00;0.28;145.39;;;;;8.40;1.00;;;;;;2261504;61;1911;-84
2021/01/24 19:19:59;222.00;0.00;1.00;0.00;0.00;0.62;;;;;8.40;1.00;;;;;;2265277;61;1372;-85
2021/01/24 19:22:26;148.00;0.00;0.88;0.00;0.00;0.62;;;;;8.80;1.00;;;;;;2268886;61;1424;-84
2021/01/24 19:24:53;77270.00;0.26;134.32;0.00;0.00;0.62;;;;;9.30;1.00;;;;;;2259401;61;1156;-84
2021/01/24 19:27:20;0.00;0.00;0.62;0.00;0.00;0.62;;;;;9.60;1.00;;;;;;2272846;61;1228;-85
2021/01/24 19:29:48;108663.00;0.36;188.52;0.00;0.00;0.62;;;;;9.90;1.00;;;;;;2272675;61;1029;-84
2021/01/24 19:32:15;10591.00;0.04;18.97;0.00;0.00;0.62;;;;;9.80;1.00;;;;;;2270073;61;1456;-85
2021/01/24 19:34:41;13127.00;0.04;23.37;0.00;0.00;0.62;;;;;10.00;1.00;;;;;;2268134;61;1033;-85
2021/01/24 19:37:09;12597.00;0.04;22.45;0.00;0.00;0.62;;;;;10.40;1.00;;;;;;2269514;61;1972;-85
2021/01/24 19:39:35;0.00;0.00;0.62;0.00;0.00;0.62;;;;;10.60;1.00;;;;;;2276724;60;1124;-84
2021/01/24 19:42:03;0.00;0.00;0.62;0.00;0.00;0.62;;;;;10.70;1.00;;;;;;2266843;61;1368;-85
2021/01/24 19:44:31;0.00;0.00;0.62;0.00;0.00;0.62;;;;;10.90;1.00;;;;;;2277034;60;1065;-84
2021/01/24 19:46:57;128726.00;0.43;223.13;0.00;0.00;0.62;;;;;11.00;1.00;;;;;;2268942;61;1157;-85
2021/01/24 19:49:25;174185.00;0.58;301.47;0.00;0.00;0.62;;;;;11.10;1.00;;;;;;2266683;61;1049;-83
2021/01/24 19:51:51;203755.00;0.68;352.39;0.00;0.00;0.62;;;;;11.20;1.00;;;;;;2272910;61;1392;-85
2021/01/24 19:54:18;170752.00;0.57;295.56;0.00;0.00;0.62;;;;;11.20;1.00;;;;;;2272953;61;1789;-83
2021/01/24 19:56:45;274857.00;0.92;474.70;0.00;0.00;0.62;;;;;11.10;1.00;;;;;;2273060;61;1988;-84
2021/01/24 19:59:12;22935.00;0.08;40.35;0.00;0.00;0.62;;;;;11.20;1.00;;;;;;2272493;61;1163;-85
2021/01/24 20:01:40;81268.00;0.27;141.23;0.00;0.00;0.62;;;;;11.20;1.00;;;;;;2266360;61;1418;-83
2021/01/24 20:04:07;0.00;0.00;0.62;0.00;0.00;0.62;;;;;11.40;1.00;;;;;;2272977;61;1063;-82
2021/01/24 20:06:33;329374.00;1.10;568.41;0.00;0.00;0.62;;;;;11.20;1.00;;;;;;2264712;61;1047;-84
2021/01/24 20:09:00;397543.00;1.33;685.58;0.00;0.00;0.62;;;;;11.10;1.00;;;;;;2264806;61;1586;-85
2021/01/24 20:11:26;341418.00;1.14;589.11;0.00;0.00;0.62;;;;;11.00;1.00;;;;;;2264686;61;1601;-85
2021/01/24 20:13:53;435116.00;1.45;750.18;0.00;0.00;0.62;;;;;11.10;1.00;;;;;;2268827;61;1576;-84
2021/01/24 20:16:19;357546.00;1.19;616.83;0.00;0.00;0.62;;;;;11.20;1.00;;;;;;2265362;61;2012;-86
2021/01/24 20:18:47;334331.00;1.11;576.93;0.00;0.00;0.62;;;;;11.30;1.00;;;;;;2261846;61;1083;-84
2021/01/24 20:21:14;365475.00;1.22;630.46;0.00;0.00;0.62;;;;;11.00;1.00;;;;;;2268939;61;976;-83
2021/01/24 20:23:40;409683.00;1.37;706.45;0.00;0.00;0.62;;;;;10.30;1.00;;;;;;2265734;60;1425;-85
2021/01/24 20:26:07;369009.00;1.23;636.53;0.00;0.00;0.62;;;;;9.40;1.00;;;;;;2270117;60;964;-84
2021/01/24 20:28:33;432617.00;1.44;745.89;0.00;0.00;0.62;;;;;8.50;1.00;;;;;;2270058;60;1104;-86
2021/01/24 20:31:00;365201.00;1.22;629.99;0.00;0.00;0.62;;;;;8.50;1.00;;;;;;2269323;61;947;-85
2021/01/24 20:33:27;452471.00;1.51;780.03;0.00;0.00;0.62;;;;;8.60;1.00;;;;;;2268967;61;1301;-84
2021/01/24 20:35:55;494963.00;1.65;853.15;28679.00;0.10;50.30;;;;;8.80;1.00;;;;;;2269008;61;1009;-85
2021/01/24 20:38:22;502530.00;1.68;866.18;0.00;0.00;0.62;;;;;9.00;1.00;;;;;;2268453;61;2014;-84
2021/01/24 20:40:48;618711.00;2.06;1066.54;25541.00;0.09;44.86;;;;;9.00;1.00;;;;;;2269994;60;1036;-84
2021/01/24 20:43:15;509501.00;1.70;878.18;0.00;0.00;0.62;;;;;9.30;1.00;;;;;;2266882;61;1352;-85